createdAt,value
2023-01-08T00:02:21.627Z,94.03
2023-01-08T00:04:48.348Z,94.39
2023-01-08T00:07:15.252Z,94.34
2023-01-08T00:09:41.857Z,95.02
2023-01-08T00:12:08.558Z,95.34
2023-01-08T00:14:35.171Z,95.17
2023-01-08T00:17:02.899Z,95.85
2023-01-08T00:19:31.188Z,95.26
2023-01-08T00:21:57.910Z,95.22
2023-01-08T00:24:24.537Z,95.18
2023-01-08T00:26:51.231Z,95.62
2023-01-08T00:29:17.976Z,95.27
2023-01-08T00:31:45.470Z,95.15
2023-01-08T00:34:12.316Z,95.53
2023-01-08T00:36:39.221Z,95.55
2023-01-08T00:39:06.134Z,95.97
2023-01-08T00:41:32.912Z,95.93
2023-01-08T00:43:59.679Z,96.59
2023-01-08T00:46:26.411Z,96.29
2023-01-08T00:48:53.120Z,96.42
2023-01-08T00:51:19.811Z,95.77
2023-01-08T00:53:46.439Z,95.69
2023-01-08T00:56:13.203Z,95.03
2023-01-08T00:58:39.933Z,95.27
2023-01-08T01:01:14.219Z,94.77
2023-01-08T01:03:41.611Z,95.26
2023-01-08T01:06:09.201Z,95.40
2023-01-08T01:08:47.656Z,95.43
2023-01-08T01:11:23.134Z,95.27
2023-01-08T01:13:50.563Z,95.20
2023-01-08T01:16:18.232Z,95.73
2023-01-08T01:18:45.264Z,95.65
2023-01-08T01:21:29.945Z,95.66
2023-01-08T01:24:01.885Z,96.07
2023-01-08T01:26:28.565Z,96.45
2023-01-08T01:28:57.021Z,96.75
2023-01-08T01:31:24.556Z,96.04
2023-01-08T01:33:51.484Z,95.84
2023-01-08T01:36:20.793Z,95.70
2023-01-08T01:38:49.404Z,95.96
2023-01-08T01:41:29.658Z,96.24
2023-01-08T01:43:58.782Z,96.17
2023-01-08T01:46:37.073Z,96.49
2023-01-08T01:49:09.755Z,96.57
2023-01-08T01:51:38.510Z,96.51
2023-01-08T01:54:08.446Z,96.64
2023-01-08T01:56:35.160Z,96.54
2023-01-08T01:59:02.095Z,96.86
2023-01-08T02:01:31.367Z,97.34
2023-01-08T02:03:58.215Z,97.62
2023-01-08T02:06:57.658Z,97.93
2023-01-08T02:09:37.159Z,97.51
2023-01-08T02:12:24.587Z,97.44
2023-01-08T02:15:13.301Z,97.50
2023-01-08T02:17:47.618Z,97.66
2023-01-08T02:20:24.199Z,98.07
2023-01-08T02:22:54.137Z,97.24
2023-01-08T02:25:35.297Z,96.95
2023-01-08T02:28:04.091Z,96.97
2023-01-08T02:30:31.448Z,97.04
2023-01-08T02:32:58.169Z,96.86
2023-01-08T02:35:33.352Z,97.40
2023-01-08T02:38:00.364Z,97.36
2023-01-08T02:40:36.884Z,97.63
2023-01-08T02:43:14.666Z,97.47
2023-01-08T02:45:46.594Z,97.39
2023-01-08T02:48:34.616Z,98.26
2023-01-08T02:51:14.090Z,98.16
2023-01-08T02:53:47.470Z,98.14
2023-01-08T02:56:18.552Z,98.44
2023-01-08T02:58:48.037Z,98.28
2023-01-08T03:01:17.284Z,98.86
2023-01-08T03:03:48.503Z,99.32
2023-01-08T03:06:18.932Z,99.08
2023-01-08T03:08:52.435Z,99.39
2023-01-08T03:11:21.884Z,98.93
2023-01-08T03:14:03.948Z,99.35
2023-01-08T03:16:36.775Z,98.82
2023-01-08T03:19:15.383Z,99.11
2023-01-08T03:21:44.955Z,99.29
2023-01-08T03:24:15.249Z,99.96
2023-01-08T03:26:44.944Z,100.00
2023-01-08T03:29:16.007Z,99.52
2023-01-08T03:31:44.591Z,99.47
2023-01-08T03:34:14.495Z,99.41
2023-01-08T03:36:46.436Z,99.20
2023-01-08T03:39:56.483Z,99.03
2023-01-08T03:42:25.329Z,99.07
2023-01-08T03:44:52.302Z,99.40
2023-01-08T03:47:22.592Z,99.23
2023-01-08T03:49:52.413Z,99.49
2023-01-08T03:52:24.580Z,99.19
2023-01-08T03:54:51.691Z,99.12
2023-01-08T03:57:18.567Z,98.84
2023-01-08T03:59:45.291Z,99.46
2023-01-08T04:02:12.600Z,98.80
2023-01-08T04:04:39.587Z,98.50
2023-01-08T04:07:06.799Z,98.27
2023-01-08T04:09:33.831Z,98.11
2023-01-08T04:12:00.548Z,97.82
2023-01-08T04:14:27.485Z,97.50
2023-01-08T04:16:55.487Z,98.75
2023-01-08T04:19:22.307Z,98.66
2023-01-08T04:21:52.332Z,98.89
2023-01-08T04:24:19.610Z,98.87
2023-01-08T04:26:46.859Z,98.72
2023-01-08T04:29:14.413Z,100.00
2023-01-08T04:31:41.456Z,100.00
2023-01-08T04:34:08.281Z,100.00
2023-01-08T04:36:34.918Z,100.00
2023-01-08T04:39:01.672Z,100.00
2023-01-08T04:41:28.637Z,100.00
2023-01-08T04:43:55.358Z,100.00
2023-01-08T04:46:22.033Z,100.00
2023-01-08T04:48:48.774Z,100.00
2023-01-08T04:51:15.371Z,100.00
2023-01-08T04:53:42.136Z,100.00
2023-01-08T04:56:10.846Z,100.00
2023-01-08T04:58:39.075Z,100.00
2023-01-08T05:01:20.005Z,100.00
2023-01-08T05:03:46.932Z,99.79
2023-01-08T05:06:13.625Z,100.00
2023-01-08T05:08:40.454Z,99.57
2023-01-08T05:11:07.109Z,99.71
2023-01-08T05:13:33.808Z,100.00
2023-01-08T05:16:01.556Z,100.00
2023-01-08T05:18:29.849Z,100.00
2023-01-08T05:21:05.647Z,100.00
2023-01-08T05:23:33.272Z,100.00
2023-01-08T05:26:01.895Z,100.00
2023-01-08T05:28:29.525Z,100.00
2023-01-08T05:30:57.043Z,100.00
2023-01-08T05:33:24.428Z,100.00
2023-01-08T05:35:51.520Z,100.00
2023-01-08T05:38:18.430Z,100.00
2023-01-08T05:40:45.089Z,100.00
2023-01-08T05:43:12.337Z,99.64
2023-01-08T05:45:39.017Z,99.41
2023-01-08T05:48:07.249Z,99.73
2023-01-08T05:50:34.575Z,99.81
2023-01-08T05:53:01.579Z,99.52
2023-01-08T05:55:28.293Z,99.23
2023-01-08T05:57:55.300Z,100.00
2023-01-08T06:00:22.256Z,100.00
2023-01-08T06:02:49.328Z,100.00
2023-01-08T06:05:16.209Z,99.89
2023-01-08T06:07:42.945Z,100.00
2023-01-08T06:10:09.915Z,100.00
2023-01-08T06:12:36.749Z,99.92
2023-01-08T06:15:04.832Z,99.78
2023-01-08T06:17:32.062Z,99.54
2023-01-08T06:19:58.729Z,99.70
2023-01-08T06:22:25.533Z,99.68
2023-01-08T06:24:52.223Z,99.72
2023-01-08T06:27:19.185Z,98.97
2023-01-08T06:29:45.823Z,99.87
2023-01-08T06:32:12.506Z,100.00
2023-01-08T06:34:39.122Z,100.00
2023-01-08T06:37:05.854Z,100.00
2023-01-08T06:39:32.710Z,100.00
2023-01-08T06:41:59.502Z,100.00
2023-01-08T06:44:26.529Z,100.00
2023-01-08T06:46:53.331Z,100.00
2023-01-08T06:49:20.627Z,100.00
2023-01-08T06:51:47.273Z,100.00
2023-01-08T06:54:13.925Z,100.00
2023-01-08T06:56:52.935Z,100.00
2023-01-08T06:59:20.623Z,100.00
2023-01-08T07:01:47.338Z,100.00
2023-01-08T07:04:14.067Z,100.00
2023-01-08T07:06:40.684Z,100.00
2023-01-08T07:09:07.590Z,100.00
2023-01-08T07:11:34.280Z,100.00
2023-01-08T07:14:00.988Z,100.00
2023-01-08T07:16:27.800Z,100.00
2023-01-08T07:18:54.543Z,100.00
2023-01-08T07:21:22.599Z,100.00
2023-01-08T07:23:49.966Z,100.00
2023-01-08T07:26:17.805Z,100.00
2023-01-08T07:28:44.719Z,100.00
2023-01-08T07:31:11.585Z,100.00
2023-01-08T07:33:38.406Z,100.00
2023-01-08T07:36:05.770Z,100.00
2023-01-08T07:38:32.678Z,100.00
2023-01-08T07:40:59.336Z,100.00
2023-01-08T07:43:26.460Z,100.00
2023-01-08T07:45:53.332Z,100.00
2023-01-08T07:48:20.300Z,100.00
2023-01-08T07:50:46.883Z,100.00
2023-01-08T07:53:17.276Z,100.00
2023-01-08T07:55:44.026Z,100.00
2023-01-08T07:58:13.492Z,100.00
2023-01-08T08:00:40.885Z,100.00
2023-01-08T08:03:11.379Z,100.00
2023-01-08T08:05:38.829Z,100.00
2023-01-08T08:08:10.694Z,100.00
2023-01-08T08:10:39.096Z,100.00
2023-01-08T08:13:06.067Z,100.00
2023-01-08T08:15:34.373Z,100.00
2023-01-08T08:18:01.058Z,100.00
2023-01-08T08:20:28.235Z,100.00
2023-01-08T08:23:06.941Z,100.00
2023-01-08T08:25:34.248Z,100.00
2023-01-08T08:28:02.311Z,100.00
2023-01-08T08:30:31.306Z,100.00
2023-01-08T08:33:01.115Z,100.00
2023-01-08T08:35:28.662Z,100.00
2023-01-08T08:37:56.345Z,100.00
2023-01-08T08:40:23.627Z,100.00
2023-01-08T08:42:59.449Z,100.00
2023-01-08T08:45:27.457Z,100.00
2023-01-08T08:47:54.800Z,100.00
2023-01-08T08:50:22.483Z,100.00
2023-01-08T08:52:49.257Z,100.00
2023-01-08T08:55:17.486Z,100.00
2023-01-08T08:57:45.949Z,100.00
2023-01-08T09:00:14.116Z,100.00
2023-01-08T09:02:41.037Z,100.00
2023-01-08T09:05:08.361Z,100.00
2023-01-08T09:07:35.160Z,100.00
2023-01-08T09:10:02.008Z,100.00
2023-01-08T09:12:28.735Z,100.00
2023-01-08T09:14:56.978Z,100.00
2023-01-08T09:17:25.266Z,100.00
2023-01-08T09:19:52.300Z,100.00
2023-01-08T09:22:19.600Z,100.00
2023-01-08T09:24:46.316Z,100.00
2023-01-08T09:27:13.761Z,100.00
2023-01-08T09:29:40.536Z,100.00
2023-01-08T09:32:08.300Z,100.00
2023-01-08T09:34:38.586Z,100.00
2023-01-08T09:37:05.599Z,100.00
2023-01-08T09:39:32.849Z,100.00
2023-01-08T09:42:04.433Z,100.00
2023-01-08T09:44:38.791Z,100.00
2023-01-08T09:47:17.952Z,100.00
2023-01-08T09:49:47.846Z,100.00
2023-01-08T09:52:15.944Z,100.00
2023-01-08T09:54:43.637Z,100.00
2023-01-08T09:57:20.508Z,100.00
2023-01-08T09:59:49.322Z,100.00
2023-01-08T10:02:24.017Z,100.00
2023-01-08T10:04:57.538Z,100.00
2023-01-08T10:07:26.473Z,100.00
2023-01-08T10:09:54.965Z,100.00
2023-01-08T10:12:28.771Z,100.00
2023-01-08T10:15:00.190Z,100.00
2023-01-08T10:17:34.169Z,100.00
2023-01-08T10:20:00.917Z,100.00
2023-01-08T10:22:34.094Z,100.00
2023-01-08T10:25:07.452Z,100.00
2023-01-08T10:27:45.827Z,100.00
2023-01-08T10:30:17.035Z,100.00
2023-01-08T10:32:50.094Z,100.00
2023-01-08T10:35:20.329Z,100.00
2023-01-08T10:37:50.376Z,100.00
2023-01-08T10:40:32.045Z,100.00
2023-01-08T10:43:07.587Z,100.00
2023-01-08T10:45:34.359Z,100.00
2023-01-08T10:48:04.548Z,100.00
2023-01-08T10:50:33.763Z,100.00
2023-01-08T10:53:03.160Z,100.00
2023-01-08T10:55:40.092Z,100.00
2023-01-08T10:58:09.987Z,100.00
2023-01-08T11:00:38.085Z,100.00
2023-01-08T11:03:07.932Z,100.00
2023-01-08T11:05:37.717Z,100.00
2023-01-08T11:08:21.279Z,100.00
2023-01-08T11:10:55.263Z,100.00
2023-01-08T11:13:22.822Z,100.00
2023-01-08T11:16:18.553Z,100.00
2023-01-08T11:18:48.933Z,100.00
2023-01-08T11:21:27.638Z,100.00
2023-01-08T11:24:21.429Z,100.00
2023-01-08T11:26:54.696Z,100.00
2023-01-08T11:29:38.708Z,100.00
2023-01-08T11:32:37.608Z,100.00
2023-01-08T11:35:21.113Z,100.00
2023-01-08T11:37:54.019Z,100.00
2023-01-08T11:40:51.095Z,100.00
2023-01-08T11:43:46.576Z,100.00
2023-01-08T11:46:24.472Z,100.00
2023-01-08T11:49:37.587Z,100.00
2023-01-08T11:52:09.407Z,100.00
2023-01-08T11:55:09.955Z,100.00
2023-01-08T11:57:47.437Z,100.00
2023-01-08T12:00:14.482Z,100.00
2023-01-08T12:02:55.823Z,100.00
2023-01-08T12:05:30.995Z,100.00
2023-01-08T12:08:12.830Z,100.00
2023-01-08T12:11:02.137Z,100.00
2023-01-08T12:13:47.534Z,100.00
2023-01-08T12:16:41.903Z,100.00
2023-01-08T12:19:42.581Z,100.00
2023-01-08T12:22:53.727Z,100.00
2023-01-08T12:25:40.884Z,100.00
2023-01-08T12:28:46.828Z,100.00
2023-01-08T12:32:02.599Z,100.00
2023-01-08T12:34:58.140Z,100.00
2023-01-08T12:37:35.038Z,100.00
2023-01-08T12:40:07.177Z,100.00
2023-01-08T12:42:41.223Z,100.00
2023-01-08T12:45:16.627Z,100.00
2023-01-08T12:47:46.516Z,100.00
2023-01-08T12:50:36.702Z,100.00
2023-01-08T12:53:26.891Z,100.00
2023-01-08T12:56:11.705Z,100.00
2023-01-08T12:59:00.621Z,100.00
2023-01-08T13:01:42.576Z,100.00
2023-01-08T13:04:11.422Z,100.00
2023-01-08T13:06:48.894Z,100.00
2023-01-08T13:09:24.557Z,100.00
2023-01-08T13:11:52.688Z,100.00
2023-01-08T13:14:19.838Z,100.00
2023-01-08T13:16:47.372Z,100.00
2023-01-08T13:19:24.894Z,100.00
2023-01-08T13:21:57.289Z,100.00
2023-01-08T13:24:35.486Z,100.00
2023-01-08T13:27:17.375Z,100.00
2023-01-08T13:29:51.741Z,100.00
2023-01-08T13:32:47.376Z,100.00
2023-01-08T13:35:16.990Z,100.00
2023-01-08T13:37:45.501Z,100.00
2023-01-08T13:40:39.999Z,100.00
2023-01-08T13:43:15.228Z,100.00
2023-01-08T13:45:43.070Z,100.00
2023-01-08T13:48:24.551Z,100.00
2023-01-08T13:50:51.926Z,100.00
2023-01-08T13:53:20.020Z,100.00
2023-01-08T13:56:06.539Z,100.00
2023-01-08T13:58:51.644Z,100.00
2023-01-08T14:01:19.257Z,100.00
2023-01-08T14:03:48.101Z,100.00
2023-01-08T14:06:23.473Z,100.00
2023-01-08T14:08:58.725Z,100.00
2023-01-08T14:11:30.849Z,100.00
2023-01-08T14:13:58.051Z,100.00
2023-01-08T14:16:25.140Z,100.00
2023-01-08T14:18:52.632Z,100.00
2023-01-08T14:21:23.139Z,100.00
2023-01-08T14:23:51.738Z,100.00
2023-01-08T14:26:36.429Z,100.00
2023-01-08T14:29:12.091Z,100.00
2023-01-08T14:31:45.562Z,100.00
2023-01-08T14:34:14.339Z,100.00
2023-01-08T14:36:42.757Z,100.00
2023-01-08T14:39:21.648Z,100.00
2023-01-08T14:42:08.013Z,100.00
2023-01-08T14:44:40.491Z,100.00
2023-01-08T14:47:18.994Z,100.00
2023-01-08T14:49:52.553Z,100.00
2023-01-08T14:52:21.244Z,100.00
2023-01-08T14:54:52.931Z,100.00
2023-01-08T14:57:21.092Z,100.00
2023-01-08T14:59:57.242Z,100.00
2023-01-08T15:02:30.987Z,100.00
2023-01-08T15:05:18.987Z,100.00
2023-01-08T15:08:02.607Z,100.00
2023-01-08T15:10:38.601Z,100.00
2023-01-08T15:13:08.427Z,100.00
2023-01-08T15:15:41.705Z,100.00
2023-01-08T15:18:11.827Z,100.00
2023-01-08T15:20:38.649Z,100.00
2023-01-08T15:23:05.595Z,100.00
2023-01-08T15:25:32.309Z,100.00
2023-01-08T15:28:03.210Z,100.00
2023-01-08T15:30:36.943Z,100.00
2023-01-08T15:33:20.089Z,100.00
2023-01-08T15:35:47.610Z,100.00
2023-01-08T15:38:14.794Z,100.00
2023-01-08T15:40:41.844Z,100.00
2023-01-08T15:43:14.426Z,100.00
2023-01-08T15:45:43.967Z,100.00
2023-01-08T15:48:11.587Z,100.00
2023-01-08T15:50:40.959Z,100.00
2023-01-08T15:53:13.267Z,100.00
2023-01-08T15:55:45.271Z,100.00
2023-01-08T15:58:18.865Z,100.00
2023-01-08T16:00:46.759Z,100.00
2023-01-08T16:03:15.153Z,100.00
2023-01-08T16:05:54.157Z,100.00
2023-01-08T16:08:24.622Z,100.00
2023-01-08T16:10:54.943Z,100.00
2023-01-08T16:13:21.884Z,100.00
2023-01-08T16:15:52.354Z,100.00
2023-01-08T16:18:25.359Z,100.00
2023-01-08T16:21:04.802Z,100.00
2023-01-08T16:23:39.445Z,100.00
2023-01-08T16:26:16.434Z,100.00
2023-01-08T16:28:43.966Z,100.00
2023-01-08T16:31:17.525Z,100.00
2023-01-08T16:33:44.659Z,100.00
2023-01-08T16:36:17.302Z,100.00
2023-01-08T16:41:32.774Z,100.00
2023-01-08T16:43:59.774Z,100.00
2023-01-08T16:46:26.913Z,100.00
2023-01-08T16:48:53.472Z,100.00
2023-01-08T16:51:21.502Z,100.00
2023-01-08T16:53:48.234Z,100.00
2023-01-08T16:56:15.216Z,100.00
2023-01-08T16:58:42.101Z,100.00
2023-01-08T17:01:10.909Z,100.00
2023-01-08T17:03:38.316Z,100.00
2023-01-08T17:06:10.556Z,100.00
2023-01-08T17:08:40.187Z,100.00
2023-01-08T17:11:13.055Z,100.00
2023-01-08T17:13:40.259Z,100.00
2023-01-08T17:16:09.141Z,100.00
2023-01-08T17:18:36.413Z,100.00
2023-01-08T17:21:03.717Z,100.00
2023-01-08T17:23:31.056Z,100.00
2023-01-08T17:25:59.942Z,100.00
2023-01-08T17:28:30.529Z,100.00
2023-01-08T17:31:07.885Z,100.00
2023-01-08T17:33:35.475Z,100.00
2023-01-08T17:36:16.852Z,100.00
2023-01-08T17:38:43.773Z,100.00
2023-01-08T17:41:31.151Z,100.00
2023-01-08T17:43:58.196Z,100.00
2023-01-08T17:46:24.939Z,100.00
2023-01-08T17:48:51.678Z,100.00
2023-01-08T17:51:18.300Z,100.00
2023-01-08T17:53:45.043Z,100.00
2023-01-08T17:56:11.722Z,100.00
2023-01-08T17:58:38.605Z,100.00
2023-01-08T18:01:10.357Z,100.00
2023-01-08T18:03:37.143Z,100.00
2023-01-08T18:06:11.419Z,100.00
2023-01-08T18:08:39.073Z,100.00
2023-01-08T18:11:06.990Z,100.00
2023-01-08T18:13:34.427Z,100.00
2023-01-08T18:16:08.985Z,100.00
2023-01-08T18:18:36.528Z,100.00
2023-01-08T18:21:03.921Z,100.00
2023-01-08T18:23:31.165Z,100.00
2023-01-08T18:26:04.347Z,100.00
2023-01-08T18:28:31.099Z,100.00
2023-01-08T18:30:57.784Z,100.00
2023-01-08T18:33:26.879Z,100.00
2023-01-08T18:35:53.730Z,100.00
2023-01-08T18:38:20.529Z,100.00
2023-01-08T18:40:47.465Z,100.00
2023-01-08T18:43:15.957Z,100.00
2023-01-08T18:45:42.653Z,100.00
2023-01-08T18:48:12.055Z,100.00
2023-01-08T18:50:40.476Z,100.00
2023-01-08T18:53:09.897Z,100.00
2023-01-08T18:55:41.385Z,100.00
2023-01-08T18:58:08.230Z,100.00
2023-01-08T19:00:36.310Z,100.00
2023-01-08T19:03:06.926Z,100.00
2023-01-08T19:05:33.655Z,100.00
2023-01-08T19:08:00.636Z,100.00
2023-01-08T19:10:27.304Z,100.00
2023-01-08T19:12:54.075Z,100.00
2023-01-08T19:15:20.921Z,100.00
2023-01-08T19:17:47.646Z,100.00
2023-01-08T19:20:14.323Z,100.00
2023-01-08T19:22:41.014Z,100.00
2023-01-08T19:25:12.302Z,100.00
2023-01-08T19:27:39.057Z,100.00
2023-01-08T19:30:06.881Z,100.00
2023-01-08T19:32:33.569Z,100.00
2023-01-08T19:35:00.794Z,100.00
2023-01-08T19:37:27.592Z,100.00
2023-01-08T19:39:54.521Z,100.00
2023-01-08T19:42:39.761Z,100.00
2023-01-08T19:45:06.980Z,100.00
2023-01-08T19:47:33.689Z,100.00
2023-01-08T19:50:05.212Z,100.00
2023-01-08T19:52:35.307Z,100.00
2023-01-08T19:55:02.320Z,100.00
2023-01-08T19:57:29.393Z,100.00
2023-01-08T19:59:56.202Z,100.00
2023-01-08T20:02:23.141Z,100.00
2023-01-08T20:04:50.492Z,100.00
2023-01-08T20:07:17.428Z,100.00
2023-01-08T20:09:44.303Z,100.00
2023-01-08T20:12:11.549Z,100.00
2023-01-08T20:14:38.405Z,100.00
2023-01-08T20:17:05.109Z,100.00
2023-01-08T20:19:32.099Z,100.00
2023-01-08T20:21:59.412Z,100.00
2023-01-08T20:24:26.233Z,100.00
2023-01-08T20:26:52.995Z,100.00
2023-01-08T20:29:19.797Z,100.00
2023-01-08T20:31:46.755Z,100.00
2023-01-08T20:34:15.816Z,100.00
2023-01-08T20:36:44.081Z,100.00
2023-01-08T20:39:15.022Z,100.00
2023-01-08T20:41:46.685Z,100.00
2023-01-08T20:44:22.547Z,100.00
2023-01-08T20:46:49.428Z,100.00
2023-01-08T20:49:18.412Z,100.00
2023-01-08T20:51:54.414Z,100.00
2023-01-08T20:54:24.648Z,100.00
2023-01-08T20:56:51.364Z,100.00
2023-01-08T20:59:18.265Z,100.00
2023-01-08T21:01:45.147Z,100.00
2023-01-08T21:04:12.118Z,100.00
2023-01-08T21:06:38.864Z,100.00
2023-01-08T21:09:09.146Z,100.00
2023-01-08T21:11:38.340Z,100.00
2023-01-08T21:14:07.955Z,100.00
2023-01-08T21:16:36.563Z,100.00
2023-01-08T21:19:03.749Z,100.00
2023-01-08T21:21:33.112Z,100.00
2023-01-08T21:24:05.099Z,100.00
2023-01-08T21:26:33.873Z,100.00
2023-01-08T21:29:06.215Z,100.00
2023-01-08T21:31:34.349Z,100.00
2023-01-08T21:34:02.157Z,100.00
2023-01-08T21:36:31.610Z,100.00
2023-01-08T21:39:00.514Z,100.00
2023-01-08T21:41:46.909Z,100.00
2023-01-08T21:44:37.832Z,100.00
2023-01-08T21:47:07.208Z,100.00
2023-01-08T21:49:35.975Z,100.00
2023-01-08T21:52:21.579Z,100.00
2023-01-08T21:54:48.292Z,100.00
2023-01-08T21:57:16.506Z,100.00
2023-01-08T21:59:43.811Z,100.00
2023-01-08T22:02:16.072Z,100.00
2023-01-08T22:04:44.183Z,100.00
2023-01-08T22:07:11.236Z,100.00
2023-01-08T22:09:38.326Z,100.00
2023-01-08T22:12:07.971Z,100.00
2023-01-08T22:14:35.521Z,100.00
2023-01-08T22:17:04.253Z,100.00
2023-01-08T22:19:31.633Z,100.00
2023-01-08T22:22:01.285Z,100.00
2023-01-08T22:24:28.165Z,100.00
2023-01-08T22:26:54.859Z,100.00
2023-01-08T22:29:21.588Z,100.00
2023-01-08T22:31:48.366Z,100.00
2023-01-08T22:34:17.350Z,100.00
2023-01-08T22:36:50.667Z,100.00
2023-01-08T22:39:20.639Z,100.00
2023-01-08T22:41:49.791Z,100.00
2023-01-08T22:44:16.563Z,100.00
2023-01-08T22:46:43.913Z,100.00
2023-01-08T22:49:13.206Z,100.00
2023-01-08T22:51:43.301Z,100.00
2023-01-08T22:54:12.820Z,100.00
2023-01-08T22:56:39.465Z,100.00
2023-01-08T22:59:06.320Z,100.00
2023-01-08T23:01:33.069Z,100.00
2023-01-08T23:04:03.486Z,99.47
2023-01-08T23:06:34.724Z,99.61
2023-01-08T23:09:01.458Z,99.54
2023-01-08T23:11:31.110Z,100.00
2023-01-08T23:13:57.921Z,99.80
2023-01-08T23:16:27.484Z,99.21
2023-01-08T23:18:57.668Z,98.72
2023-01-08T23:21:26.300Z,99.05
2023-01-08T23:23:53.080Z,99.04
2023-01-08T23:26:23.795Z,99.30
2023-01-08T23:28:54.675Z,98.78
2023-01-08T23:31:28.045Z,98.51
2023-01-08T23:34:00.139Z,97.82
2023-01-08T23:36:29.288Z,97.18
2023-01-08T23:38:59.001Z,97.99
2023-01-08T23:41:34.841Z,98.93
2023-01-08T23:44:05.481Z,99.42
2023-01-08T23:46:34.741Z,99.42
2023-01-08T23:49:04.476Z,99.83
2023-01-08T23:51:32.708Z,100.00
2023-01-08T23:54:00.195Z,100.00
2023-01-08T23:56:30.010Z,100.00
2023-01-08T23:58:59.720Z,100.00
